This is the latest recevied weather packets stored in our database for station/object MB7UCW-13. If no packets are shown the sender has not sent any weather packets the latest 10 day(s).
| Time | Temp. | Humidity | Pressure | Rain* | Wind** | Luminosity | Snow |
|---|---|---|---|---|---|---|---|
| 1777302903 | 17.22° C | 61% | 1025 hPa | 0 mm | - | 550 W/m² | - |
| 1777298403 | 17.78° C | 62% | 1025.3 hPa | 0 mm | - | 657 W/m² | - |
| 1777293003 | 17.22° C | 66% | 1025.8 hPa | 0 mm | - | 775 W/m² | - |
| 1777287603 | 16.11° C | 71% | 1026.3 hPa | 0 mm | - | 737 W/m² | - |
| 1777284903 | 15° C | 76% | 1026.4 hPa | 0 mm | - | 664 W/m² | - |
| 1777279503 | 12.78° C | 80% | 1026.4 hPa | 0 mm | - | 257 W/m² | - |
| 1777277703 | 11.11° C | 86% | 1026.1 hPa | 0 mm | - | 290 W/m² | - |
| 1777272303 | 10° C | 92% | 1026.1 hPa | 0 mm | - | 51 W/m² | - |
| 1777270524 | 9.44° C | 92% | 1026.1 hPa | 0 mm | - | 33 W/m² | - |
| 1777268703 | 10° C | 92% | 1025.9 hPa | 0 mm | - | 19 W/m² | - |
| 1777264203 | 8.89° C | 91% | 1025.3 hPa | 0 mm | - | 0 W/m² | - |
| 1777261503 | 9.44° C | 90% | 1025.3 hPa | 0 mm | - | 0 W/m² | - |
| 1777260603 | 10° C | 89% | 1025.3 hPa | 0 mm | - | 0 W/m² | - |
| 1777255203 | 11.11° C | 86% | 1024.8 hPa | 0 mm | - | 0 W/m² | - |
| 1777252524 | 11.67° C | 84% | 1025 hPa | 0 mm | - | 0 W/m² | - |
| 1777250703 | 12.22° C | 83% | 1024.8 hPa | 0 mm | - | 0 W/m² | - |
| 1777248003 | 12.78° C | 80% | 1024.8 hPa | 0 mm | - | 0 W/m² | - |
| 1777247103 | 12.78° C | 80% | 1024.8 hPa | 0 mm | - | 0 W/m² | - |
| 1777244403 | 13.33° C | 78% | 1024.5 hPa | 0 mm | - | 0 W/m² | - |
| 1777241703 | 13.89° C | 75% | 1024.3 hPa | 0 mm | - | 0 W/m² | - |
| 1777237203 | 14.44° C | 70% | 1024.1 hPa | 0 mm | - | 0 W/m² | - |
| 1777231803 | 16.11° C | 57% | 1023.4 hPa | 0 mm | - | 0 W/m² | - |
| 1777229103 | 16.67° C | 54% | 1023.2 hPa | 0 mm | - | 19 W/m² | - |
| 1777224603 | 18.33° C | 50% | 1023 hPa | 0 mm | - | 86 W/m² | - |
| 1777222803 | 18.89° C | 50% | 1023 hPa | 0 mm | - | 153 W/m² | - |
* Rain latest hour (hover to see other rain measurements)
** Current wind speed in m/s (hover to see current wind gust speed)